Startpagina
METAR-TAF:

METAR-TAF

Vliegvelden :

Yaoundé, Kameroen

Luchthaven Yaoundé Nsimalen Internationaal

breedte: 03-50N, lengte: 011-31E, hoogte: 751 m

Actueel weer

Dit bericht is 1 uur en het 16 minuten geleden gemaakt, om 19:00 UTC
Temperatuur 26°C
Vochtigheid 79%
Druk 1014 hPa
Zicht: 7000 m
Verspreide wolken op 1300 ft

METAR: FKYS 241900Z /////KT 7000 SCT013 26/22 Q1014 NOSIG

Tijdstip: 21:16 (20:16 UTC)

Verwachting

Dit bericht is 3 uur en het 16 minuten geleden gemaakt, om 17:00 UTC
Verwachting geldig van 24 om 18 UTC tot 25 om 18 UTC
Wind 6 kt uit variabele richting
Zicht: 7000 m
Verspreide wolken op 2000 ft
Wijzigt naar
van 24 om 20 UTC tot 24 om 22 UTC
Gebroken wolken op 600 ft
Tijdelijke
van 25 om 02 UTC tot 25 om 06 UTC
Zicht: 2500 m
nevel
Wijzigt naar
van 25 om 07 UTC tot 25 om 09 UTC
Gebroken wolken op 1600 ft

TAF: FKYS 241700Z 2418/2518 VRB06KT 7000 SCT020 BECMG 2420/2422 BKN006 TEMPO 2502/2506 2500 BR BECMG 2507/2509 BKN016

Waarnemingen en weersverwachtingen van meer dan 4000 vliegvelden (METAR en TAF).

De beschikbare stations zijn de gele en rode punten op de kaart.

Ga met uw muis naar het station om de naam te zien.

Klik dan om waarnemingen en weersverwachtingen te zien.

kaart wijzigen: klik op de groene knoppen met een zwart kruis om in te zoomen, op de groene knop met een streepje om uit te zoomen of op de groene pijlen voor aangrenzende kaarten.


METAR-TAF: